createdAt,value
2022-08-20T00:00:53.429Z,24.39
2022-08-20T00:03:32.711Z,24.44
2022-08-20T00:06:20.504Z,24.45
2022-08-20T00:08:47.858Z,24.44
2022-08-20T00:11:18.494Z,24.39
2022-08-20T00:13:49.688Z,24.39
2022-08-20T00:16:17.980Z,24.35
2022-08-20T00:18:45.858Z,24.35
2022-08-20T00:21:18.783Z,24.36
2022-08-20T00:23:49.221Z,24.37
2022-08-20T00:26:17.808Z,24.38
2022-08-20T00:28:44.920Z,24.36
2022-08-20T00:31:14.372Z,24.31
2022-08-20T00:33:41.612Z,24.27
2022-08-20T00:36:10.871Z,24.20
2022-08-20T00:38:42.308Z,24.14
2022-08-20T00:41:12.859Z,24.13
2022-08-20T00:43:43.461Z,24.10
2022-08-20T00:46:14.359Z,24.09
2022-08-20T00:48:43.164Z,24.06
2022-08-20T00:51:33.948Z,24.03
2022-08-20T00:54:08.918Z,24.06
2022-08-20T00:56:36.637Z,24.06
2022-08-20T00:59:06.136Z,24.03
2022-08-20T01:01:36.751Z,24.00
2022-08-20T01:04:21.416Z,24.00
2022-08-20T01:06:48.696Z,24.00
2022-08-20T01:09:15.812Z,23.94
2022-08-20T01:11:42.816Z,23.89
2022-08-20T01:14:31.108Z,23.84
2022-08-20T01:17:03.787Z,23.75
2022-08-20T01:19:41.347Z,23.69
2022-08-20T01:22:27.338Z,23.66
2022-08-20T01:25:09.047Z,23.61
2022-08-20T01:27:42.496Z,23.56
2022-08-20T01:30:10.306Z,23.49
2022-08-20T01:32:37.455Z,23.43
2022-08-20T01:35:05.863Z,23.33
2022-08-20T01:37:32.835Z,23.27
2022-08-20T01:39:59.988Z,23.21
2022-08-20T01:42:28.225Z,23.15
2022-08-20T01:44:55.288Z,23.07
2022-08-20T01:47:27.847Z,23.02
2022-08-20T01:49:59.869Z,22.94
2022-08-20T01:53:04.558Z,22.86
2022-08-20T01:55:32.498Z,22.74
2022-08-20T01:58:00.457Z,22.59
2022-08-20T02:00:28.013Z,22.50
2022-08-20T02:02:55.059Z,22.47
2022-08-20T02:05:22.954Z,22.48
2022-08-20T02:07:50.439Z,22.47
2022-08-20T02:10:18.565Z,22.41
2022-08-20T02:12:45.568Z,22.41
2022-08-20T02:15:13.006Z,22.41
2022-08-20T02:17:41.789Z,22.40
2022-08-20T02:20:16.959Z,22.39
2022-08-20T02:22:53.103Z,22.35
2022-08-20T02:25:24.727Z,22.28
2022-08-20T02:27:53.645Z,22.22
2022-08-20T02:30:30.418Z,22.18
2022-08-20T02:32:58.377Z,22.15
2022-08-20T02:35:25.677Z,22.11
2022-08-20T02:37:53.110Z,22.07
2022-08-20T02:40:30.441Z,22.05
2022-08-20T02:42:59.623Z,22.06
2022-08-20T02:45:27.350Z,22.06
2022-08-20T02:47:55.792Z,22.06
2022-08-20T02:50:24.026Z,22.05
2022-08-20T02:52:51.776Z,22.06
2022-08-20T02:55:27.897Z,22.08
2022-08-20T02:57:57.930Z,22.11
2022-08-20T03:00:27.375Z,22.12
2022-08-20T03:02:54.331Z,22.09
2022-08-20T03:05:21.240Z,22.05
2022-08-20T03:07:53.824Z,21.99
2022-08-20T03:10:27.012Z,21.97
2022-08-20T03:12:54.378Z,22.01
2022-08-20T03:15:21.415Z,22.04
2022-08-20T03:17:48.448Z,22.06
2022-08-20T03:20:15.629Z,22.10
2022-08-20T03:22:42.612Z,22.10
2022-08-20T03:25:10.336Z,22.10
2022-08-20T03:27:37.578Z,22.11
2022-08-20T03:30:07.763Z,22.09
2022-08-20T03:32:34.988Z,22.08
2022-08-20T03:35:02.117Z,22.06
2022-08-20T03:37:33.166Z,22.03
2022-08-20T03:40:00.927Z,21.99
2022-08-20T03:42:27.956Z,21.94
2022-08-20T03:44:59.030Z,21.94
2022-08-20T03:47:26.826Z,21.94
2022-08-20T03:50:01.487Z,21.92
2022-08-20T03:52:29.426Z,21.97
2022-08-20T03:54:57.257Z,21.98
2022-08-20T03:57:24.589Z,21.97
2022-08-20T03:59:58.006Z,21.95
2022-08-20T04:02:25.826Z,21.99
2022-08-20T04:04:53.098Z,22.02
2022-08-20T04:07:25.706Z,22.04
2022-08-20T04:09:53.816Z,22.06
2022-08-20T04:12:22.168Z,22.08
2022-08-20T04:14:49.789Z,22.11
2022-08-20T04:17:19.274Z,22.10
2022-08-20T04:19:47.539Z,22.10
2022-08-20T04:22:15.727Z,22.09
2022-08-20T04:24:43.157Z,22.10
2022-08-20T04:27:11.046Z,22.11
2022-08-20T04:29:43.033Z,22.13
2022-08-20T04:32:10.149Z,22.17
2022-08-20T04:34:37.171Z,22.18
2022-08-20T04:37:05.125Z,22.20
2022-08-20T04:39:32.743Z,22.17
2022-08-20T04:41:59.781Z,22.22
2022-08-20T04:44:27.505Z,22.26
2022-08-20T04:46:54.444Z,22.35
2022-08-20T04:49:26.415Z,22.40
2022-08-20T04:51:54.690Z,22.41
2022-08-20T04:54:21.879Z,22.45
2022-08-20T04:56:49.369Z,22.52
2022-08-20T04:59:16.400Z,22.58
2022-08-20T05:01:43.330Z,22.66
2022-08-20T05:04:10.387Z,22.72
2022-08-20T05:06:37.708Z,22.76
2022-08-20T05:09:05.758Z,22.76
2022-08-20T05:11:36.549Z,22.79
2022-08-20T05:14:06.069Z,22.82
2022-08-20T05:16:38.295Z,22.84
2022-08-20T05:19:08.730Z,22.83
2022-08-20T05:21:36.401Z,22.87
2022-08-20T05:24:03.717Z,22.92
2022-08-20T05:26:30.897Z,22.97
2022-08-20T05:28:59.435Z,23.04
2022-08-20T05:31:31.924Z,23.16
2022-08-20T05:34:11.030Z,23.30
2022-08-20T05:36:56.407Z,23.41
2022-08-20T05:39:23.666Z,23.48
2022-08-20T05:41:51.433Z,23.53
2022-08-20T05:44:19.010Z,23.52
2022-08-20T05:46:47.402Z,23.54
2022-08-20T05:49:21.339Z,23.56
2022-08-20T05:51:49.690Z,23.62
2022-08-20T05:54:17.025Z,23.68
2022-08-20T05:56:44.135Z,23.69
2022-08-20T05:59:12.619Z,23.69
2022-08-20T06:01:40.589Z,23.68
2022-08-20T06:04:27.332Z,23.67
2022-08-20T06:06:57.270Z,23.72
2022-08-20T06:09:28.618Z,23.70
2022-08-20T06:12:01.497Z,23.71
2022-08-20T06:14:28.646Z,23.78
2022-08-20T06:16:57.323Z,23.90
2022-08-20T06:19:26.962Z,24.03
2022-08-20T06:21:54.882Z,24.09
2022-08-20T06:24:21.939Z,24.19
2022-08-20T06:26:55.870Z,24.26
2022-08-20T06:29:23.044Z,24.39
2022-08-20T06:31:49.957Z,24.45
2022-08-20T06:34:18.141Z,24.52
2022-08-20T06:36:46.825Z,24.56
2022-08-20T06:39:15.246Z,24.54
2022-08-20T06:41:42.599Z,24.56
2022-08-20T06:44:10.330Z,24.60
2022-08-20T06:46:38.542Z,24.54
2022-08-20T06:49:06.959Z,24.48
2022-08-20T06:51:34.422Z,24.43
2022-08-20T06:54:01.498Z,24.35
2022-08-20T06:56:28.530Z,24.35
2022-08-20T06:58:55.644Z,24.40
2022-08-20T07:01:22.837Z,24.50
2022-08-20T07:03:55.349Z,24.58
2022-08-20T07:06:26.840Z,24.66
2022-08-20T07:08:55.846Z,24.74
2022-08-20T07:11:27.810Z,24.80
2022-08-20T07:13:56.915Z,24.85
2022-08-20T07:16:24.517Z,24.89
2022-08-20T07:18:51.625Z,24.89
2022-08-20T07:21:18.646Z,24.92
2022-08-20T07:23:45.980Z,24.88
2022-08-20T07:26:13.350Z,24.92
2022-08-20T07:28:40.658Z,24.96
2022-08-20T07:31:26.131Z,25.03
2022-08-20T07:33:54.272Z,25.03
2022-08-20T07:36:21.464Z,24.97
2022-08-20T07:38:50.953Z,24.94
2022-08-20T07:41:18.867Z,24.98
2022-08-20T07:43:46.463Z,24.92
2022-08-20T07:46:16.195Z,24.89
2022-08-20T07:48:50.477Z,24.88
2022-08-20T07:51:20.174Z,24.87
2022-08-20T07:53:48.253Z,24.98
2022-08-20T07:56:19.303Z,25.09
2022-08-20T07:58:52.871Z,25.17
2022-08-20T08:01:26.088Z,25.24
2022-08-20T08:03:53.300Z,25.33
2022-08-20T08:06:29.310Z,25.43
2022-08-20T08:09:09.521Z,25.53
2022-08-20T08:11:38.593Z,25.50
2022-08-20T08:14:07.288Z,25.44
2022-08-20T08:16:35.291Z,25.41
2022-08-20T08:19:05.200Z,25.35
2022-08-20T08:21:32.489Z,25.35
2022-08-20T08:23:59.647Z,25.34
2022-08-20T08:26:28.911Z,25.36
2022-08-20T08:28:58.073Z,25.39
2022-08-20T08:31:25.936Z,25.41
2022-08-20T08:33:53.338Z,25.37
2022-08-20T08:36:20.333Z,25.34
2022-08-20T08:38:47.411Z,25.22
2022-08-20T08:41:14.289Z,25.08
2022-08-20T08:43:41.451Z,25.00
2022-08-20T08:46:11.059Z,25.05
2022-08-20T08:48:44.468Z,25.18
2022-08-20T08:51:14.489Z,25.34
2022-08-20T08:53:53.465Z,25.49
2022-08-20T08:56:30.787Z,25.64
2022-08-20T08:59:15.650Z,25.72
2022-08-20T09:01:55.572Z,25.72
2022-08-20T09:04:35.186Z,25.80
2022-08-20T09:07:03.417Z,25.86
2022-08-20T09:09:37.084Z,25.99
2022-08-20T09:12:21.304Z,26.04
2022-08-20T09:14:49.431Z,26.06
2022-08-20T09:17:18.609Z,26.12
2022-08-20T09:19:45.908Z,26.25
2022-08-20T09:22:18.159Z,26.38
2022-08-20T09:24:45.436Z,26.48
2022-08-20T09:27:12.381Z,26.55
2022-08-20T09:29:39.917Z,26.52
2022-08-20T09:32:14.457Z,26.54
2022-08-20T09:34:43.913Z,26.66
2022-08-20T09:37:11.302Z,26.78
2022-08-20T09:39:38.243Z,26.91
2022-08-20T09:42:10.174Z,27.01
2022-08-20T09:44:37.533Z,27.07
2022-08-20T09:47:04.691Z,27.13
2022-08-20T09:49:31.925Z,27.16
2022-08-20T09:52:00.545Z,27.30
2022-08-20T09:54:30.227Z,27.39
2022-08-20T09:57:04.292Z,27.45
2022-08-20T09:59:32.040Z,27.48
2022-08-20T10:01:59.138Z,27.50
2022-08-20T10:04:26.208Z,27.49
2022-08-20T10:06:53.310Z,27.38
2022-08-20T10:09:20.348Z,27.34
2022-08-20T10:11:47.256Z,27.32
2022-08-20T10:14:14.347Z,27.36
2022-08-20T10:16:41.364Z,27.34
2022-08-20T10:19:08.659Z,27.42
2022-08-20T10:21:38.839Z,27.56
2022-08-20T10:24:06.445Z,27.70
2022-08-20T10:26:33.457Z,27.69
2022-08-20T10:29:00.378Z,27.72
2022-08-20T10:31:27.328Z,27.72
2022-08-20T10:33:54.433Z,27.76
2022-08-20T10:36:21.518Z,27.93
2022-08-20T10:38:49.188Z,28.18
2022-08-20T10:41:16.498Z,28.43
2022-08-20T10:43:43.457Z,28.65
2022-08-20T10:46:10.510Z,28.81
2022-08-20T10:48:38.253Z,28.98
2022-08-20T10:51:05.317Z,29.19
2022-08-20T10:53:32.903Z,29.36
2022-08-20T10:55:59.878Z,29.44
2022-08-20T10:58:37.482Z,29.58
2022-08-20T11:01:06.688Z,29.60
2022-08-20T11:03:34.055Z,29.63
2022-08-20T11:06:01.220Z,29.70
2022-08-20T11:08:33.543Z,29.80
2022-08-20T11:11:01.032Z,29.73
2022-08-20T11:13:27.989Z,29.56
2022-08-20T11:15:54.899Z,29.50
2022-08-20T11:18:21.809Z,29.49
2022-08-20T11:20:48.809Z,29.50
2022-08-20T11:23:15.851Z,29.60
2022-08-20T11:25:42.989Z,29.62
2022-08-20T11:28:10.082Z,29.59
2022-08-20T11:30:37.791Z,29.70
2022-08-20T11:33:05.488Z,29.82
2022-08-20T11:35:48.215Z,29.84
2022-08-20T11:38:17.788Z,29.65
2022-08-20T11:40:46.967Z,29.41
2022-08-20T11:43:16.343Z,29.19
2022-08-20T11:45:46.662Z,29.02
2022-08-20T11:48:13.892Z,28.60
2022-08-20T11:50:40.868Z,28.20
2022-08-20T11:53:08.161Z,27.95
2022-08-20T11:55:35.591Z,27.77
2022-08-20T11:58:02.605Z,27.56
2022-08-20T12:00:33.047Z,27.47
2022-08-20T12:03:01.440Z,27.39
2022-08-20T12:05:30.213Z,27.15
2022-08-20T12:07:58.140Z,27.09
2022-08-20T12:10:26.900Z,27.03
2022-08-20T12:12:54.810Z,26.74
2022-08-20T12:15:21.829Z,26.52
2022-08-20T12:17:48.788Z,26.37
2022-08-20T12:20:16.533Z,26.22
2022-08-20T12:22:44.696Z,26.11
2022-08-20T12:25:13.253Z,26.07
2022-08-20T12:27:41.281Z,26.00
2022-08-20T12:30:14.160Z,26.01
2022-08-20T12:32:42.438Z,26.03
2022-08-20T12:35:10.708Z,26.11
2022-08-20T12:37:38.382Z,26.14
2022-08-20T12:40:09.387Z,26.11
2022-08-20T12:42:36.935Z,26.16
2022-08-20T12:45:04.957Z,26.25
2022-08-20T12:47:34.410Z,26.27
2022-08-20T12:50:07.798Z,26.36
2022-08-20T12:52:35.228Z,26.40
2022-08-20T12:55:03.529Z,26.39
2022-08-20T12:57:33.677Z,26.39
2022-08-20T13:00:11.029Z,26.49
2022-08-20T13:02:38.869Z,26.54
2022-08-20T13:05:06.992Z,26.55
2022-08-20T13:07:34.786Z,26.50
2022-08-20T13:10:02.498Z,26.54
2022-08-20T13:12:29.518Z,26.55
2022-08-20T13:14:56.635Z,26.51
2022-08-20T13:17:32.756Z,26.48
2022-08-20T13:20:12.914Z,26.46
2022-08-20T13:22:41.470Z,26.45
2022-08-20T13:25:10.099Z,26.42
2022-08-20T13:27:40.640Z,26.39
2022-08-20T13:30:09.066Z,26.40
2022-08-20T13:32:36.184Z,26.45
2022-08-20T13:35:03.461Z,26.42
2022-08-20T13:37:30.823Z,26.39
2022-08-20T13:39:58.810Z,26.38
2022-08-20T13:42:27.141Z,26.37
2022-08-20T13:44:54.536Z,26.32
2022-08-20T13:47:30.821Z,26.35
2022-08-20T13:50:00.463Z,26.38
2022-08-20T13:52:27.968Z,26.12
2022-08-20T13:54:55.295Z,26.14
2022-08-20T13:57:24.838Z,26.04
2022-08-20T13:59:55.219Z,25.90
2022-08-20T14:02:22.438Z,25.77
2022-08-20T14:04:50.557Z,25.74
2022-08-20T14:07:32.243Z,25.66
2022-08-20T14:10:09.647Z,25.72
2022-08-20T14:12:36.748Z,25.60
2022-08-20T14:15:04.194Z,25.58
2022-08-20T14:17:35.007Z,25.30
2022-08-20T14:20:08.575Z,24.74
2022-08-20T14:22:36.954Z,24.48
2022-08-20T14:25:05.809Z,24.67
2022-08-20T14:27:33.971Z,24.65
2022-08-20T14:30:01.901Z,24.78
2022-08-20T14:32:28.817Z,24.75
2022-08-20T14:34:58.366Z,24.61
2022-08-20T14:37:29.264Z,24.66
2022-08-20T14:39:58.165Z,24.75
2022-08-20T14:42:27.133Z,24.75
2022-08-20T14:44:55.596Z,24.84
2022-08-20T14:47:31.382Z,24.91
2022-08-20T14:50:04.773Z,25.14
2022-08-20T14:52:32.996Z,25.21
2022-08-20T14:55:00.149Z,25.35
2022-08-20T14:57:27.739Z,25.20
2022-08-20T14:59:54.676Z,25.02
2022-08-20T15:02:22.361Z,25.07
2022-08-20T15:04:54.042Z,25.00
2022-08-20T15:07:28.576Z,24.98
2022-08-20T15:09:56.138Z,25.22
2022-08-20T15:12:24.305Z,25.25
2022-08-20T15:14:51.605Z,25.30
2022-08-20T15:17:19.889Z,25.31
2022-08-20T15:19:47.116Z,25.17
2022-08-20T15:22:14.400Z,25.28
2022-08-20T15:24:41.414Z,25.45
2022-08-20T15:27:23.048Z,25.60
2022-08-20T15:29:53.343Z,25.43
2022-08-20T15:32:21.566Z,25.47
2022-08-20T15:34:49.214Z,25.32
2022-08-20T15:37:18.861Z,25.18
2022-08-20T15:39:45.998Z,25.14
2022-08-20T15:42:13.919Z,25.15
2022-08-20T15:44:42.674Z,25.13
2022-08-20T15:47:31.654Z,25.01
2022-08-20T15:50:14.207Z,25.13
2022-08-20T15:52:43.308Z,25.28
2022-08-20T15:55:13.395Z,25.40
2022-08-20T15:57:56.469Z,25.48
2022-08-20T16:00:31.277Z,25.50
2022-08-20T16:03:06.127Z,25.54
2022-08-20T16:06:13.822Z,25.46
2022-08-20T16:08:58.386Z,25.38
2022-08-20T16:11:43.984Z,25.09
2022-08-20T16:14:30.928Z,25.16
2022-08-20T16:17:10.267Z,25.37
2022-08-20T16:20:02.137Z,25.22
2022-08-20T16:22:29.837Z,25.07
2022-08-20T16:24:57.121Z,25.06
2022-08-20T16:27:39.393Z,24.99
2022-08-20T16:30:20.944Z,24.70
2022-08-20T16:32:57.822Z,24.58
2022-08-20T16:35:35.178Z,24.56
2022-08-20T16:38:23.474Z,24.55
2022-08-20T16:40:57.326Z,24.50
2022-08-20T16:43:41.510Z,24.35
2022-08-20T16:46:16.861Z,24.29
2022-08-20T16:48:58.040Z,24.23
2022-08-20T16:51:37.358Z,24.34
2022-08-20T16:54:04.860Z,24.36
2022-08-20T16:56:39.201Z,24.29
2022-08-20T16:59:24.656Z,24.32
2022-08-20T17:02:10.516Z,24.35
2022-08-20T17:04:59.173Z,24.24
2022-08-20T17:07:33.586Z,24.00
2022-08-20T17:10:20.467Z,23.79
2022-08-20T17:13:00.045Z,23.77
2022-08-20T17:15:30.044Z,23.72
2022-08-20T17:17:57.345Z,23.58
2022-08-20T17:20:28.130Z,23.55
2022-08-20T17:23:09.244Z,23.54
2022-08-20T17:25:40.097Z,23.46
2022-08-20T17:28:20.464Z,23.47
2022-08-20T17:30:47.553Z,23.41
2022-08-20T17:33:29.151Z,23.28
2022-08-20T17:35:58.414Z,23.29
2022-08-20T17:38:33.062Z,23.14
2022-08-20T17:41:02.963Z,23.09
2022-08-20T17:43:33.029Z,23.05
2022-08-20T17:46:04.426Z,23.02
2022-08-20T17:48:45.656Z,22.98
2022-08-20T17:51:26.861Z,22.93
2022-08-20T17:53:57.701Z,22.86
2022-08-20T17:56:31.794Z,22.90
2022-08-20T18:00:00.664Z,22.86
2022-08-20T18:02:23.090Z,22.88
2022-08-20T18:04:52.012Z,22.80
2022-08-20T18:07:30.494Z,22.78
2022-08-20T18:10:15.114Z,22.76
2022-08-20T18:13:03.413Z,22.72
2022-08-20T18:15:58.663Z,22.65
2022-08-20T18:18:34.418Z,22.57
2022-08-20T18:21:28.991Z,22.55
2022-08-20T18:24:07.778Z,22.46
2022-08-20T18:26:45.396Z,22.38
2022-08-20T18:29:27.513Z,22.24
2022-08-20T18:32:00.304Z,22.23
2022-08-20T18:34:30.057Z,22.19
2022-08-20T18:37:02.573Z,22.17
2022-08-20T18:39:33.019Z,22.21
2022-08-20T18:42:07.516Z,22.20
2022-08-20T18:44:49.734Z,22.22
2022-08-20T18:47:37.006Z,22.21
2022-08-20T18:50:16.144Z,22.20
2022-08-20T18:52:53.101Z,22.18
2022-08-20T18:55:31.536Z,22.09
2022-08-20T18:58:02.846Z,22.04
2022-08-20T19:00:49.107Z,21.95
2022-08-20T19:03:20.741Z,21.95
2022-08-20T19:05:50.588Z,21.93
2022-08-20T19:08:20.867Z,21.90
2022-08-20T19:10:52.771Z,21.87
2022-08-20T19:13:46.255Z,21.82
2022-08-20T19:16:36.544Z,21.79
2022-08-20T19:19:03.746Z,21.75
2022-08-20T19:21:37.602Z,21.69
2022-08-20T19:24:07.192Z,21.61
2022-08-20T19:26:41.928Z,21.59
2022-08-20T19:29:15.578Z,21.52
2022-08-20T19:31:42.836Z,21.51
2022-08-20T19:34:19.748Z,21.48
2022-08-20T19:37:27.538Z,21.42
2022-08-20T19:39:55.152Z,21.45
2022-08-20T19:42:31.537Z,21.44
2022-08-20T19:45:08.293Z,21.43
2022-08-20T19:47:51.345Z,21.42
2022-08-20T19:50:48.186Z,21.40
2022-08-20T19:53:45.098Z,21.41
2022-08-20T19:56:23.748Z,21.44
2022-08-20T19:59:04.722Z,21.48
2022-08-20T20:01:33.037Z,21.52
2022-08-20T20:04:06.937Z,21.52
2022-08-20T20:06:37.378Z,21.52
2022-08-20T20:09:26.900Z,21.53
2022-08-20T20:12:04.694Z,21.52
2022-08-20T20:14:36.388Z,21.52
2022-08-20T20:17:06.769Z,21.56
2022-08-20T20:19:56.511Z,21.54
2022-08-20T20:22:36.331Z,21.53
2022-08-20T20:25:22.163Z,21.48
2022-08-20T20:27:51.972Z,21.46
2022-08-20T20:30:31.713Z,21.43
2022-08-20T20:33:01.380Z,21.40
2022-08-20T20:35:34.971Z,21.39
2022-08-20T20:38:09.553Z,21.36
2022-08-20T20:40:52.090Z,21.37
2022-08-20T20:43:29.630Z,21.33
2022-08-20T20:46:23.046Z,21.33
2022-08-20T20:49:16.816Z,21.31
2022-08-20T20:52:13.222Z,21.32
2022-08-20T20:54:44.719Z,21.34
2022-08-20T20:57:37.998Z,21.35
2022-08-20T21:00:17.546Z,21.34
2022-08-20T21:02:46.176Z,21.33
2022-08-20T21:05:16.669Z,21.30
2022-08-20T21:07:50.475Z,21.31
2022-08-20T21:10:20.371Z,21.31
2022-08-20T21:12:52.442Z,21.29
2022-08-20T21:15:22.383Z,21.26
2022-08-20T21:17:49.418Z,21.27
2022-08-20T21:20:16.586Z,21.26
2022-08-20T21:22:43.706Z,21.28
2022-08-20T21:25:10.786Z,21.32
2022-08-20T21:27:38.310Z,21.34
2022-08-20T21:30:06.354Z,21.37
2022-08-20T21:32:33.247Z,21.37
2022-08-20T21:35:00.363Z,21.36
2022-08-20T21:37:27.493Z,21.35
2022-08-20T21:39:54.801Z,21.33
2022-08-20T21:42:29.301Z,21.34
2022-08-20T21:44:58.326Z,21.30
2022-08-20T21:47:26.069Z,21.26
2022-08-20T21:49:53.235Z,21.24
2022-08-20T21:52:20.674Z,21.24
2022-08-20T21:54:47.610Z,21.25
2022-08-20T21:57:25.179Z,21.24
2022-08-20T21:59:52.386Z,21.25
2022-08-20T22:02:19.616Z,21.27
2022-08-20T22:04:46.687Z,21.30
2022-08-20T22:07:13.888Z,21.35
2022-08-20T22:09:40.948Z,21.38
2022-08-20T22:12:17.761Z,21.41
2022-08-20T22:14:45.254Z,21.38
2022-08-20T22:17:13.276Z,21.36
2022-08-20T22:19:40.438Z,21.33
2022-08-20T22:22:10.776Z,21.32
2022-08-20T22:24:38.180Z,21.29
2022-08-20T22:27:06.157Z,21.25
2022-08-20T22:29:33.342Z,21.24
2022-08-20T22:32:00.550Z,21.24
2022-08-20T22:34:29.281Z,21.24
2022-08-20T22:36:57.606Z,21.23
2022-08-20T22:39:24.505Z,21.22
2022-08-20T22:41:51.499Z,21.17
2022-08-20T22:44:18.436Z,21.12
2022-08-20T22:46:48.261Z,21.08
2022-08-20T22:49:19.277Z,21.05
2022-08-20T22:51:46.305Z,21.01
2022-08-20T22:54:16.808Z,20.92
2022-08-20T22:56:43.889Z,20.93
2022-08-20T22:59:10.835Z,20.92
2022-08-20T23:01:38.392Z,20.88
2022-08-20T23:04:12.570Z,20.86
2022-08-20T23:06:40.052Z,20.82
2022-08-20T23:09:07.059Z,20.78
2022-08-20T23:11:34.065Z,20.74
2022-08-20T23:14:01.030Z,20.65
2022-08-20T23:16:28.078Z,20.52
2022-08-20T23:18:55.138Z,20.41
2022-08-20T23:21:22.138Z,20.40
2022-08-20T23:23:49.100Z,20.42
2022-08-20T23:26:19.801Z,20.37
2022-08-20T23:28:46.948Z,20.41
2022-08-20T23:31:14.099Z,20.42
2022-08-20T23:33:44.699Z,20.43
2022-08-20T23:36:12.594Z,20.44
2022-08-20T23:38:39.614Z,20.44
2022-08-20T23:41:06.638Z,20.44
2022-08-20T23:43:33.686Z,20.41
2022-08-20T23:46:03.593Z,20.41
2022-08-20T23:48:30.637Z,20.40
2022-08-20T23:50:57.647Z,20.42
2022-08-20T23:53:24.885Z,20.45
2022-08-20T23:55:51.845Z,20.47
2022-08-20T23:58:19.199Z,20.48
